Time;durP1;ratioP1;P1;durP2;ratioP2;P2;SDS_P1;SDS_P2;PMS_P1;PMS_P2;Temp;Humidity;BMP_temperature;BMP_pressure;BME280_temperature;BME280_humidity;BME280_pressure;Samples;Min_cycle;Max_cycle;Signal;HPM_P1;HPM_P2
2021/04/29 00:00:14;;;;;;;9.73;8.20;;;;;;;12.28;100.00;154512.31;5023298;28;20804;-83
2021/04/29 00:02:51;;;;;;;9.37;8.17;;;;;;;12.25;100.00;154505.81;5043727;28;20566;-83
2021/04/29 00:05:27;;;;;;;9.10;8.10;;;;;;;12.32;100.00;154523.94;5029564;28;20459;-83
2021/04/29 00:08:02;;;;;;;9.30;8.37;;;;;;;12.34;100.00;154527.88;5037510;28;20433;-83
2021/04/29 00:10:38;;;;;;;12.07;8.63;;;;;;;12.30;100.00;154518.78;5021264;28;20469;-83
2021/04/29 00:13:14;;;;;;;11.93;8.70;;;;;;;12.33;100.00;154525.25;5017049;28;20432;-83
2021/04/29 00:15:49;;;;;;;11.10;9.90;;;;;;;12.30;100.00;154518.78;5012668;28;20452;-83
2021/04/29 00:18:24;;;;;;;10.53;8.47;;;;;;;12.30;100.00;154518.78;5043781;28;20774;-83
2021/04/29 00:20:59;;;;;;;11.53;9.10;;;;;;;12.17;100.00;154485.06;5020593;28;20441;-83
2021/04/29 00:23:34;;;;;;;10.13;9.13;;;;;;;12.14;100.00;154478.59;5028881;28;20480;-83
2021/04/29 00:26:10;;;;;;;12.93;9.20;;;;;;;12.18;100.00;154487.63;5021923;28;20450;-83
2021/04/29 00:28:46;;;;;;;11.97;9.63;;;;;;;12.17;100.00;154486.38;5065544;28;20451;-83
2021/04/29 00:31:22;;;;;;;10.70;9.50;;;;;;;12.14;100.00;154478.59;5047266;28;20453;-83
2021/04/29 00:33:57;;;;;;;10.10;9.10;;;;;;;12.19;100.00;154490.25;5032237;28;20473;-83
2021/04/29 00:36:32;;;;;;;11.27;9.20;;;;;;;12.14;100.00;154478.59;5038224;28;20456;-82
2021/04/29 00:39:07;;;;;;;13.33;10.73;;;;;;;12.19;100.00;154491.56;5040368;28;20448;-82
2021/04/29 00:41:42;;;;;;;12.80;10.87;;;;;;;12.26;100.00;154507.13;5039898;28;20446;-83
2021/04/29 00:44:18;;;;;;;12.00;9.70;;;;;;;12.25;100.00;154505.81;5035437;28;20459;-83
2021/04/29 00:46:53;;;;;;;13.20;11.67;;;;;;;12.23;100.00;154500.66;5052451;28;20919;-83
2021/04/29 00:49:28;;;;;;;12.57;11.23;;;;;;;12.27;100.00;154509.69;5020110;28;20471;-83
2021/04/29 00:52:03;;;;;;;14.43;12.10;;;;;;;12.25;100.00;154504.50;5036632;28;20451;-83
2021/04/29 00:54:38;;;;;;;12.20;11.00;;;;;;;12.19;100.00;154491.56;5033319;28;20445;-83
2021/04/29 00:57:13;;;;;;;13.40;12.10;;;;;;;12.21;100.00;154495.41;5040911;28;20559;-83
2021/04/29 00:59:49;;;;;;;12.50;11.30;;;;;;;12.19;100.00;154490.25;5040934;28;20452;-83
2021/04/29 01:02:24;;;;;;;12.00;10.63;;;;;;;12.25;100.00;154504.50;5038001;28;20439;-83
2021/04/29 01:05:04;;;;;;;12.80;10.97;;;;;;;12.23;100.00;154501.91;5049570;28;20861;-83
2021/04/29 01:07:42;;;;;;;12.40;11.20;;;;;;;12.25;100.00;154504.50;5048785;28;20444;-83
2021/04/29 01:10:20;;;;;;;14.27;10.73;;;;;;;12.26;100.00;154507.13;5026692;28;20472;-83
2021/04/29 01:13:01;;;;;;;11.47;9.10;;;;;;;12.25;100.00;154505.81;5032577;28;20441;-82
2021/04/29 01:15:39;;;;;;;13.00;10.37;;;;;;;12.21;100.00;154496.72;5020138;28;20526;-83
2021/04/29 01:18:15;;;;;;;10.53;9.43;;;;;;;12.23;100.00;154501.91;5015695;28;20455;-83
2021/04/29 01:21:00;;;;;;;10.60;9.50;;;;;;;12.25;100.00;154504.50;5025574;28;20444;-83
2021/04/29 01:23:42;;;;;;;9.80;8.80;;;;;;;12.28;100.00;154512.31;5032060;28;20560;-83
2021/04/29 01:26:20;;;;;;;10.83;9.70;;;;;;;12.30;100.00;154518.78;5027173;28;20455;-83
2021/04/29 01:28:57;;;;;;;10.37;9.30;;;;;;;12.32;100.00;154522.66;5036660;28;20810;-83
2021/04/29 01:31:34;;;;;;;9.93;8.93;;;;;;;12.32;100.00;154522.66;5031793;28;20445;-83
2021/04/29 01:34:12;;;;;;;9.73;8.63;;;;;;;12.31;100.00;154520.09;5040469;28;20440;-83
2021/04/29 01:36:49;;;;;;;10.67;8.63;;;;;;;12.32;100.00;154522.66;5068292;28;20456;-83
2021/04/29 01:39:24;;;;;;;7.97;7.17;;;;;;;12.26;100.00;154507.13;5065439;28;20440;-83
2021/04/29 01:42:00;;;;;;;9.20;8.10;;;;;;;12.35;100.00;154530.44;5039859;28;20799;-83
2021/04/29 01:44:36;;;;;;;7.20;6.50;;;;;;;12.36;100.00;154533.03;5051538;28;20889;-83
2021/04/29 01:47:11;;;;;;;5.43;4.83;;;;;;;12.40;100.00;154544.69;5020010;28;20514;-83
2021/04/29 01:49:46;;;;;;;5.80;4.20;;;;;;;12.42;100.00;154548.56;5051358;28;20855;-83
2021/04/29 01:52:21;;;;;;;4.20;3.80;;;;;;;12.44;100.00;154553.78;5036118;28;20451;-83
2021/04/29 01:54:56;;;;;;;3.73;3.33;;;;;;;12.46;100.00;154558.97;5050074;28;20464;-83
2021/04/29 01:57:32;;;;;;;3.70;3.00;;;;;;;12.43;100.00;154551.19;5046558;28;20479;-83
2021/04/29 02:00:10;;;;;;;3.80;3.03;;;;;;;12.43;100.00;154551.19;5040003;28;20452;-83
2021/04/29 02:02:45;;;;;;;4.07;3.50;;;;;;;12.39;100.00;154540.84;5051295;28;20448;-83
2021/04/29 02:05:20;;;;;;;3.90;3.10;;;;;;;12.36;100.00;154533.03;5032242;28;20937;-83
2021/04/29 02:07:57;;;;;;;3.13;2.57;;;;;;;12.36;100.00;154533.03;5038488;28;20547;-83
2021/04/29 02:10:32;;;;;;;3.30;3.00;;;;;;;12.33;100.00;154525.25;5037608;28;20483;-83
2021/04/29 02:13:09;;;;;;;3.57;3.03;;;;;;;12.37;100.00;154535.59;5046958;28;20436;-83
2021/04/29 02:15:51;;;;;;;3.93;2.70;;;;;;;12.40;100.00;154543.41;5045224;28;20535;-83
2021/04/29 02:18:27;;;;;;;3.10;2.80;;;;;;;12.40;100.00;154544.69;5042543;28;21010;-83
2021/04/29 02:21:02;;;;;;;3.10;2.80;;;;;;;12.38;100.00;154539.53;5050634;28;20454;-83
2021/04/29 02:23:38;;;;;;;3.73;3.43;;;;;;;12.42;100.00;154548.56;5014566;28;20605;-83
2021/04/29 02:26:14;;;;;;;3.10;2.80;;;;;;;12.35;100.00;154531.75;5040591;28;20452;-83
2021/04/29 02:28:49;;;;;;;2.97;2.40;;;;;;;12.39;100.00;154542.09;5067177;28;20479;-83
2021/04/29 02:31:25;;;;;;;2.90;2.43;;;;;;;12.37;100.00;154536.91;5033815;28;20449;-83
2021/04/29 02:34:01;;;;;;;3.00;2.50;;;;;;;12.31;100.00;154521.34;5034696;28;20436;-83
2021/04/29 02:36:36;;;;;;;4.30;2.83;;;;;;;12.28;100.00;154513.59;5033110;28;20470;-82
2021/04/29 02:39:11;;;;;;;2.37;2.10;;;;;;;12.26;100.00;154507.13;5034007;28;20457;-83
2021/04/29 02:41:46;;;;;;;3.60;2.23;;;;;;;12.26;100.00;154507.13;5029387;28;20456;-83
2021/04/29 02:44:21;;;;;;;2.27;2.07;;;;;;;12.29;100.00;154516.16;5038680;28;20477;-83
2021/04/29 02:46:57;;;;;;;2.37;2.17;;;;;;;12.23;99.80;154499.34;5065018;28;20444;-83
2021/04/29 02:49:33;;;;;;;2.90;2.60;;;;;;;12.18;100.00;154488.94;5050644;28;20452;-83
2021/04/29 02:52:09;;;;;;;2.73;2.50;;;;;;;12.15;100.00;154481.16;5050161;28;20446;-83
2021/04/29 02:54:45;;;;;;;2.30;2.10;;;;;;;12.19;99.74;154491.56;5020920;28;20443;-83
2021/04/29 02:57:21;;;;;;;2.40;2.20;;;;;;;12.18;99.97;154488.94;5031806;28;20443;-82
2021/04/29 02:59:56;;;;;;;3.20;2.03;;;;;;;12.14;100.00;154478.59;5037441;28;20450;-83
2021/04/29 03:02:32;;;;;;;2.90;1.83;;;;;;;12.10;100.00;154466.88;5034816;28;20452;-83
2021/04/29 03:05:09;;;;;;;1.73;1.60;;;;;;;12.12;99.98;154473.41;5031448;28;20469;-83
2021/04/29 03:07:45;;;;;;;2.60;2.40;;;;;;;12.12;100.00;154473.41;5049904;28;20510;-82
2021/04/29 03:10:21;;;;;;;2.10;1.90;;;;;;;12.15;100.00;154479.91;5039467;28;20512;-83
2021/04/29 03:12:56;;;;;;;1.93;1.80;;;;;;;12.12;100.00;154472.13;5029735;28;20504;-83
2021/04/29 03:15:31;;;;;;;1.67;1.53;;;;;;;12.12;100.00;154473.41;5018159;28;20442;-83
2021/04/29 03:18:07;;;;;;;2.73;1.70;;;;;;;12.10;100.00;154468.19;5041557;28;20445;-83
2021/04/29 03:20:42;;;;;;;1.40;1.00;;;;;;;12.07;100.00;154460.41;5015452;28;20428;-83
2021/04/29 03:23:18;;;;;;;2.20;1.40;;;;;;;12.02;100.00;154446.19;5070484;28;20470;-83
2021/04/29 03:25:53;;;;;;;2.00;1.20;;;;;;;12.04;100.00;154452.69;5055034;28;20826;-83
2021/04/29 03:28:29;;;;;;;1.30;1.00;;;;;;;12.02;100.00;154446.19;5041367;28;20489;-83
2021/04/29 03:31:04;;;;;;;1.70;1.20;;;;;;;11.99;100.00;154439.66;5031011;28;20519;-83
2021/04/29 03:33:41;;;;;;;1.50;1.10;;;;;;;11.98;100.00;154437.09;5003591;28;20460;-83
2021/04/29 03:36:15;;;;;;;1.40;1.20;;;;;;;12.01;100.00;154444.91;5033337;28;20432;-83
2021/04/29 03:38:50;;;;;;;1.50;1.20;;;;;;;11.97;100.00;154434.50;5048195;28;20814;-83
2021/04/29 03:41:26;;;;;;;1.90;1.30;;;;;;;11.91;100.00;154418.97;5033365;28;20571;-83
2021/04/29 03:44:12;;;;;;;1.30;1.00;;;;;;;11.93;100.00;154424.16;5048010;28;20569;-82
2021/04/29 03:46:48;;;;;;;1.40;0.90;;;;;;;11.94;100.00;154426.72;5032982;28;20458;-83
2021/04/29 03:49:23;;;;;;;1.50;1.10;;;;;;;11.90;100.00;154415.06;5032853;28;20435;-83
2021/04/29 03:51:58;;;;;;;1.13;0.90;;;;;;;11.90;100.00;154415.06;5033864;28;20447;-83
2021/04/29 03:54:34;;;;;;;4.43;1.50;;;;;;;11.89;99.25;154412.44;5033445;28;20440;-83
2021/04/29 03:57:09;;;;;;;1.80;1.40;;;;;;;11.85;99.38;154403.41;5049093;28;20455;-82
2021/04/29 03:59:44;;;;;;;1.30;0.80;;;;;;;11.82;98.44;154395.63;5033753;28;20499;-82
2021/04/29 04:02:19;;;;;;;2.70;1.27;;;;;;;11.82;96.27;154395.63;5032501;28;20462;-83
2021/04/29 04:04:55;;;;;;;1.37;1.00;;;;;;;11.78;96.03;154385.22;5032425;28;20476;-82
2021/04/29 04:07:30;;;;;;;1.20;1.00;;;;;;;11.67;95.35;154355.41;5018062;28;20443;-82
2021/04/29 04:10:07;;;;;;;2.10;1.50;;;;;;;11.68;95.94;154359.28;5047697;28;20471;-82
2021/04/29 04:12:42;;;;;;;1.33;0.80;;;;;;;11.65;95.67;154351.50;5033851;28;20452;-82
2021/04/29 04:15:17;;;;;;;1.40;1.10;;;;;;;11.60;96.25;154338.53;5048537;28;20483;-82
2021/04/29 04:17:53;;;;;;;1.43;1.10;;;;;;;11.57;95.68;154330.75;5058117;28;20546;-82
2021/04/29 04:20:28;;;;;;;2.50;1.13;;;;;;;11.58;96.50;154334.66;5031178;28;20447;-81
2021/04/29 04:23:04;;;;;;;1.63;0.97;;;;;;;11.56;95.53;154328.19;5036983;28;20538;-81
2021/04/29 04:25:39;;;;;;;1.10;0.90;;;;;;;11.51;96.19;154315.25;5069278;28;20490;-81
2021/04/29 04:28:15;;;;;;;0.90;0.80;;;;;;;11.47;96.76;154306.16;5035282;28;20447;-81
2021/04/29 04:31:01;;;;;;;2.10;1.07;;;;;;;11.40;96.24;154288.03;5034252;28;20457;-81
2021/04/29 04:33:40;;;;;;;5.00;1.07;;;;;;;11.40;97.83;154286.72;5019185;28;20455;-82
2021/04/29 04:36:16;;;;;;;3.50;1.30;;;;;;;11.39;96.14;154284.13;5067761;28;20450;-81
2021/04/29 04:38:52;;;;;;;2.90;1.60;;;;;;;11.39;95.49;154284.13;5035095;28;20448;-81
2021/04/29 04:41:28;;;;;;;1.70;0.90;;;;;;;11.37;96.98;154278.94;5034119;28;20456;-81
2021/04/29 04:44:03;;;;;;;1.40;1.23;;;;;;;11.39;95.22;154284.13;5016888;28;20484;-81
2021/04/29 04:46:40;;;;;;;3.30;1.50;;;;;;;11.36;96.20;154277.63;5032523;28;20488;-82
2021/04/29 04:49:16;;;;;;;1.30;1.10;;;;;;;11.34;95.99;154271.16;5002060;28;20546;-81
2021/04/29 04:51:52;;;;;;;1.93;1.40;;;;;;;11.33;96.25;154268.59;5051864;28;20460;-81
2021/04/29 04:54:27;;;;;;;1.23;1.00;;;;;;;11.41;95.52;154289.34;5042726;28;21345;-81
2021/04/29 04:57:03;;;;;;;1.43;1.30;;;;;;;11.45;96.42;154299.69;5039107;28;20455;-81
2021/04/29 04:59:50;;;;;;;1.93;1.67;;;;;;;11.48;93.68;154308.75;5034450;28;20478;-81
2021/04/29 05:02:25;;;;;;;2.20;1.63;;;;;;;11.51;93.17;154315.25;5019095;28;20451;-82
2021/04/29 05:05:04;;;;;;;1.77;1.40;;;;;;;11.48;93.44;154308.75;5016862;28;20457;-81
2021/04/29 05:07:40;;;;;;;1.70;1.60;;;;;;;11.54;93.35;154324.28;5022283;28;20456;-82
2021/04/29 05:10:15;;;;;;;2.00;1.80;;;;;;;11.56;93.61;154328.19;5036676;28;20521;-81
2021/04/29 05:12:49;;;;;;;1.73;1.63;;;;;;;11.57;94.00;154332.06;5035017;28;20443;-81
2021/04/29 05:15:25;;;;;;;1.60;1.50;;;;;;;11.59;94.00;154335.97;5036691;28;20519;-81
2021/04/29 05:18:00;;;;;;;2.93;2.23;;;;;;;11.60;92.79;154338.53;5050868;28;20762;-81
2021/04/29 05:20:36;;;;;;;2.37;2.10;;;;;;;11.68;92.02;154359.28;5034516;28;20928;-82
2021/04/29 05:23:12;;;;;;;2.57;2.37;;;;;;;11.71;89.88;154367.09;5035968;28;20434;-81
2021/04/29 05:25:47;;;;;;;2.47;2.27;;;;;;;11.64;90.83;154348.94;5034927;28;20452;-81
2021/04/29 05:28:22;;;;;;;2.80;2.37;;;;;;;11.62;90.45;154343.75;5034633;28;20449;-81
2021/04/29 05:30:58;;;;;;;3.20;2.83;;;;;;;11.57;90.91;154330.75;5036157;28;20448;-82
2021/04/29 05:33:33;;;;;;;3.00;2.70;;;;;;;11.61;88.90;154342.44;5050240;28;20453;-80
2021/04/29 05:36:08;;;;;;;3.10;2.50;;;;;;;11.52;88.69;154319.09;5028508;28;20522;-82
2021/04/29 05:38:44;;;;;;;3.93;2.70;;;;;;;11.53;90.44;154320.41;5037462;28;20466;-81
2021/04/29 05:41:19;;;;;;;3.10;2.70;;;;;;;11.52;90.90;154319.09;5038214;28;20801;-81
2021/04/29 05:43:54;;;;;;;3.00;2.53;;;;;;;11.49;89.53;154310.06;5038388;28;20475;-82
2021/04/29 05:46:29;;;;;;;3.23;2.93;;;;;;;11.49;90.62;154310.06;5038202;28;20542;-81
2021/04/29 05:49:04;;;;;;;4.40;3.20;;;;;;;11.51;89.60;154316.53;5019663;28;20477;-81
2021/04/29 05:51:40;;;;;;;3.43;2.37;;;;;;;11.51;91.91;154315.25;5017501;28;20532;-83
2021/04/29 05:54:16;;;;;;;4.20;2.67;;;;;;;11.54;91.34;154324.28;5059321;28;20446;-83
2021/04/29 05:56:51;;;;;;;3.33;2.90;;;;;;;11.54;90.64;154323.03;5063220;28;20461;-85
2021/04/29 05:59:27;;;;;;;4.70;3.03;;;;;;;11.57;88.73;154330.75;5038753;28;20444;-82
2021/04/29 06:02:02;;;;;;;3.10;2.80;;;;;;;11.57;91.16;154330.75;5051127;28;20471;-82
2021/04/29 06:04:38;;;;;;;3.87;3.30;;;;;;;11.60;89.05;154338.53;5033166;28;20479;-83
2021/04/29 06:07:13;;;;;;;4.30;3.37;;;;;;;11.60;90.35;154339.84;5029699;28;20436;-82
2021/04/29 06:09:49;;;;;;;3.90;2.70;;;;;;;11.59;88.39;154335.97;5040417;28;20572;-82
2021/04/29 06:12:24;;;;;;;3.37;3.07;;;;;;;11.65;89.78;154351.50;5027962;28;20443;-83
2021/04/29 06:14:59;;;;;;;5.23;4.20;;;;;;;11.67;88.89;154356.72;5035889;28;20968;-81
2021/04/29 06:17:35;;;;;;;4.10;3.37;;;;;;;11.61;90.02;154341.16;5067616;28;20541;-81
2021/04/29 06:20:12;;;;;;;4.10;3.63;;;;;;;11.68;88.87;154357.97;5066584;28;20451;-81
2021/04/29 06:22:47;;;;;;;4.30;3.47;;;;;;;11.76;88.75;154380.06;5042491;28;20438;-80
2021/04/29 06:25:23;;;;;;;3.43;3.00;;;;;;;11.87;87.66;154408.56;5020210;28;20484;-83
2021/04/29 06:28:01;;;;;;;5.03;3.97;;;;;;;12.02;86.19;154447.44;5030754;28;20495;-83
2021/04/29 06:30:38;;;;;;;4.13;3.33;;;;;;;12.05;87.96;154455.25;5029103;28;20430;-83
2021/04/29 06:33:13;;;;;;;4.07;3.43;;;;;;;12.18;88.10;154488.94;5034025;28;20446;-83
2021/04/29 06:35:48;;;;;;;5.47;3.90;;;;;;;12.25;87.17;154504.50;5033415;28;20476;-83
2021/04/29 06:38:25;;;;;;;4.40;3.70;;;;;;;12.30;87.66;154517.47;5034857;28;20482;-83
2021/04/29 06:41:01;;;;;;;5.23;3.70;;;;;;;12.40;86.89;154543.41;5024437;28;20942;-83
2021/04/29 06:43:36;;;;;;;6.73;4.97;;;;;;;12.46;86.29;154558.97;5046381;28;21003;-82
2021/04/29 06:46:11;;;;;;;6.27;4.03;;;;;;;12.57;87.07;154587.50;5051120;28;20424;-81
2021/04/29 06:48:47;;;;;;;5.60;4.63;;;;;;;12.63;84.20;154604.34;5033883;28;20461;-80
2021/04/29 06:51:22;;;;;;;5.43;4.93;;;;;;;12.78;85.22;154641.97;5033298;28;20853;-81
2021/04/29 06:53:57;;;;;;;5.70;5.07;;;;;;;12.98;83.85;154693.84;5024784;28;20448;-81
2021/04/29 06:56:33;;;;;;;6.80;4.70;;;;;;;13.40;81.82;154802.88;5033327;28;20436;-82
2021/04/29 06:59:08;;;;;;;5.17;4.67;;;;;;;13.60;82.38;154853.50;5034818;28;20452;-82
2021/04/29 07:01:43;;;;;;;4.33;3.93;;;;;;;13.68;82.40;154872.97;5059911;28;20445;-81
2021/04/29 07:04:18;;;;;;;5.40;4.90;;;;;;;14.02;81.50;154961.25;5034609;28;20964;-82
2021/04/29 07:06:53;;;;;;;6.93;5.57;;;;;;;14.58;79.93;155105.44;5034917;28;20437;-82
2021/04/29 07:09:28;;;;;;;7.70;4.63;;;;;;;14.96;79.44;155202.81;5029122;28;20434;-81
2021/04/29 07:12:05;;;;;;;6.30;5.00;;;;;;;15.16;75.95;155254.81;5034338;28;20438;-82
2021/04/29 07:14:40;;;;;;;5.13;4.67;;;;;;;15.16;75.45;155256.13;5032872;28;20938;-81
2021/04/29 07:17:15;;;;;;;7.33;5.00;;;;;;;15.00;74.35;155214.56;5027775;28;20535;-81
2021/04/29 07:19:50;;;;;;;6.60;5.13;;;;;;;14.83;76.58;155169.06;5034114;28;20820;-82
2021/04/29 07:22:25;;;;;;;5.23;4.73;;;;;;;14.75;74.99;155149.56;5046499;28;20448;-82
2021/04/29 07:25:01;;;;;;;5.70;5.13;;;;;;;14.78;75.16;155156.06;5014426;28;20489;-82
2021/04/29 07:27:37;;;;;;;5.50;4.43;;;;;;;14.74;74.63;155147.00;5057332;28;20449;-83
2021/04/29 07:30:12;;;;;;;6.20;4.80;;;;;;;14.84;75.14;155171.66;5039158;28;20462;-83
2021/04/29 07:32:47;;;;;;;7.43;5.23;;;;;;;15.05;73.80;155226.22;5022922;28;20444;-83
2021/04/29 07:35:23;;;;;;;5.47;4.93;;;;;;;15.06;75.00;155228.84;5029794;28;20972;-83
2021/04/29 07:37:58;;;;;;;7.07;5.37;;;;;;;15.14;74.89;155249.66;5022055;28;20880;-83
2021/04/29 07:40:34;;;;;;;5.53;4.93;;;;;;;15.08;70.77;155235.34;5030257;28;20533;-83
2021/04/29 07:43:10;;;;;;;7.73;5.53;;;;;;;15.08;71.72;155234.03;5026051;28;20847;-83
2021/04/29 07:45:45;;;;;;;5.67;5.07;;;;;;;15.11;74.79;155243.16;5025377;28;20850;-84
2021/04/29 07:48:20;;;;;;;7.60;5.70;;;;;;;15.32;74.46;155296.41;5020996;28;20467;-82
2021/04/29 07:51:07;;;;;;;6.97;6.27;;;;;;;15.70;74.72;155395.22;5027378;28;20445;-83
2021/04/29 07:53:42;;;;;;;8.50;6.03;;;;;;;16.24;71.30;155534.34;5050269;28;20443;-83
2021/04/29 07:56:17;;;;;;;6.70;5.90;;;;;;;16.83;68.81;155686.59;5030478;28;20447;-83
2021/04/29 07:58:53;;;;;;;7.00;6.00;;;;;;;17.10;66.40;155755.56;5032019;28;20463;-83
2021/04/29 08:01:29;;;;;;;6.73;6.00;;;;;;;17.57;63.96;155876.66;5016775;28;20446;-83
2021/04/29 08:04:04;;;;;;;7.93;6.30;;;;;;;17.80;61.95;155936.53;5032431;28;20464;-83
2021/04/29 08:06:39;;;;;;;8.00;7.13;;;;;;;17.73;59.99;155918.31;5032133;28;20439;-84
2021/04/29 08:09:14;;;;;;;7.97;6.80;;;;;;;17.41;58.76;155836.25;5031792;28;20502;-84
2021/04/29 08:11:50;;;;;;;8.10;7.30;;;;;;;17.32;59.53;155812.81;5033417;28;20420;-84
2021/04/29 08:14:25;;;;;;;8.37;7.30;;;;;;;17.04;58.01;155739.94;5031905;28;20457;-83
2021/04/29 08:17:01;;;;;;;8.53;7.73;;;;;;;16.82;61.41;155682.69;5032815;28;20453;-83
2021/04/29 08:19:36;;;;;;;8.67;7.50;;;;;;;16.98;59.13;155725.63;5031788;28;20885;-83
2021/04/29 08:22:11;;;;;;;7.93;7.10;;;;;;;16.95;59.45;155717.81;5030277;28;20519;-83
2021/04/29 08:24:58;;;;;;;9.17;7.50;;;;;;;16.84;60.37;155687.88;5013081;28;20580;-83
2021/04/29 08:27:33;;;;;;;9.20;8.10;;;;;;;16.68;63.55;155647.53;5016540;28;20419;-83
2021/04/29 08:30:13;;;;;;;9.90;8.83;;;;;;;16.74;61.58;155661.88;5071874;22;20484;-84
2021/04/29 08:32:48;;;;;;;8.70;7.90;;;;;;;16.76;58.20;155668.38;5024655;28;20445;-84
2021/04/29 08:35:24;;;;;;;10.20;7.67;;;;;;;16.77;61.38;155669.66;5038738;28;20488;-84
2021/04/29 08:38:00;;;;;;;9.33;8.33;;;;;;;16.95;62.07;155716.50;5018285;28;20945;-84
2021/04/29 08:40:35;;;;;;;8.60;7.70;;;;;;;16.98;58.38;155725.63;5051105;28;20441;-84
2021/04/29 08:43:10;;;;;;;8.63;7.77;;;;;;;17.13;58.73;155762.06;5056341;28;20432;-83
2021/04/29 08:45:46;;;;;;;9.33;8.10;;;;;;;17.20;59.49;155780.28;5033886;28;20474;-84
2021/04/29 08:48:22;;;;;;;8.27;7.47;;;;;;;17.46;58.34;155849.25;5051285;28;20443;-84
2021/04/29 08:51:03;;;;;;;9.43;8.53;;;;;;;17.32;58.79;155812.81;5030883;28;20448;-84
2021/04/29 08:53:40;;;;;;;9.73;8.77;;;;;;;17.26;58.51;155795.91;5029081;28;20835;-84
2021/04/29 08:56:20;;;;;;;8.63;7.77;;;;;;;17.21;58.39;155782.91;5014168;28;20465;-84
2021/04/29 08:58:56;;;;;;;10.60;8.30;;;;;;;17.03;58.24;155737.31;5037828;28;20934;-84
2021/04/29 09:01:39;;;;;;;8.70;7.80;;;;;;;16.99;58.78;155728.25;5017708;28;20484;-84
2021/04/29 09:04:16;;;;;;;8.83;7.90;;;;;;;17.08;58.14;155749.06;5051970;28;20476;-84
2021/04/29 09:06:51;;;;;;;9.20;8.30;;;;;;;17.08;59.10;155749.06;5028350;28;20464;-84
2021/04/29 09:09:26;;;;;;;9.43;8.43;;;;;;;16.89;59.53;155702.19;5049443;28;20444;-84
2021/04/29 09:12:01;;;;;;;8.83;8.03;;;;;;;16.67;58.77;155644.97;5035716;28;20484;-84
2021/04/29 09:14:38;;;;;;;8.60;7.90;;;;;;;16.67;58.51;155643.66;5056797;28;20469;-84
2021/04/29 09:17:22;;;;;;;9.77;8.33;;;;;;;16.56;59.46;155615.03;5037634;28;20546;-83
2021/04/29 09:19:57;;;;;;;8.00;7.30;;;;;;;16.49;59.69;155598.09;5038231;28;20447;-84
2021/04/29 09:22:32;;;;;;;9.90;8.27;;;;;;;16.41;58.36;155577.28;5057156;28;20526;-84
2021/04/29 09:25:12;;;;;;;8.57;7.67;;;;;;;16.36;59.43;155564.28;5045427;28;20778;-83
2021/04/29 09:27:52;;;;;;;8.93;7.93;;;;;;;16.33;60.83;155556.47;5034276;28;20447;-84
2021/04/29 09:30:28;;;;;;;8.47;7.67;;;;;;;16.27;59.32;155542.16;5031908;28;20537;-83
2021/04/29 09:33:06;;;;;;;10.00;7.53;;;;;;;16.25;62.79;155535.66;5046518;28;20442;-83
2021/04/29 09:35:41;;;;;;;8.87;7.53;;;;;;;16.27;60.97;155542.16;5038396;28;20439;-83
2021/04/29 09:38:16;;;;;;;9.20;8.33;;;;;;;16.14;65.23;155507.06;5031836;28;20502;-76
2021/04/29 09:40:51;;;;;;;10.60;7.87;;;;;;;16.02;62.60;155475.88;5034217;28;20837;-76
2021/04/29 09:43:27;;;;;;;9.60;8.60;;;;;;;15.99;65.89;155468.06;5034170;28;20459;-76
2021/04/29 09:46:04;;;;;;;5.93;5.43;;;;;;;15.46;67.85;155331.56;5032590;28;20434;-76
2021/04/29 09:48:40;;;;;;;5.90;5.37;;;;;;;15.00;72.36;155214.56;5027673;28;20889;-76
2021/04/29 09:51:17;;;;;;;8.20;6.27;;;;;;;14.76;72.10;155150.88;5045068;28;20767;-76
2021/04/29 09:53:54;;;;;;;7.80;6.27;;;;;;;14.66;73.42;155124.91;5037551;28;20519;-76
2021/04/29 09:56:29;;;;;;;8.53;6.70;;;;;;;14.55;74.70;155098.94;5037070;28;20461;-76
2021/04/29 09:59:04;;;;;;;8.40;7.50;;;;;;;14.56;77.52;155101.50;5053392;28;20433;-76
2021/04/29 10:01:39;;;;;;;8.50;7.70;;;;;;;14.70;78.06;155136.59;5035427;28;20590;-76
2021/04/29 10:04:15;;;;;;;9.10;8.20;;;;;;;14.91;77.19;155189.84;5035472;28;20495;-76
2021/04/29 10:06:51;;;;;;;8.77;7.87;;;;;;;15.11;78.32;155243.16;5028470;28;20963;-76
2021/04/29 10:09:28;;;;;;;10.40;9.37;;;;;;;15.59;79.10;155365.34;5034019;28;20441;-76
2021/04/29 10:12:05;;;;;;;9.03;8.13;;;;;;;15.86;77.32;155434.25;5016575;28;20445;-76
2021/04/29 10:14:42;;;;;;;9.23;8.10;;;;;;;16.08;74.57;155492.75;5051172;28;20454;-76
2021/04/29 10:17:18;;;;;;;9.80;8.90;;;;;;;16.39;76.50;155573.34;5029570;28;20445;-76
2021/04/29 10:19:57;;;;;;;8.47;7.67;;;;;;;16.67;70.48;155644.97;5052632;28;20443;-76
2021/04/29 10:22:32;;;;;;;9.67;8.50;;;;;;;17.05;65.53;155742.53;5053676;28;20442;-76
2021/04/29 10:25:09;;;;;;;8.90;8.07;;;;;;;17.15;65.34;155768.59;5001251;28;20578;-76
2021/04/29 10:27:45;;;;;;;9.40;8.50;;;;;;;17.46;68.95;155847.94;5039346;28;20439;-76
2021/04/29 10:30:21;;;;;;;8.60;7.27;;;;;;;17.76;63.12;155926.13;5053117;28;20467;-76
2021/04/29 10:32:56;;;;;;;8.73;7.87;;;;;;;17.71;62.35;155911.81;5008053;28;20437;-76
2021/04/29 10:35:33;;;;;;;9.30;7.30;;;;;;;17.73;61.07;155918.31;5035409;28;20908;-76
2021/04/29 10:38:09;;;;;;;8.57;7.70;;;;;;;17.70;57.30;155910.50;5027606;28;20440;-77
2021/04/29 10:40:44;;;;;;;10.03;8.07;;;;;;;17.68;57.94;155905.28;5025254;28;20451;-76
2021/04/29 10:43:29;;;;;;;7.23;6.63;;;;;;;17.79;58.46;155932.63;5036593;28;20440;-76
2021/04/29 10:46:06;;;;;;;8.50;7.70;;;;;;;17.63;59.15;155892.28;5007630;28;20444;-76
2021/04/29 10:48:52;;;;;;;8.33;7.53;;;;;;;17.48;59.41;155853.16;5042617;28;20425;-76
2021/04/29 10:51:42;;;;;;;12.03;8.60;;;;;;;17.38;58.13;155828.44;5046650;28;20465;-76
2021/04/29 10:54:20;;;;;;;8.87;7.30;;;;;;;17.30;56.35;155807.63;5032697;28;20583;-76
2021/04/29 10:57:04;;;;;;;8.30;7.50;;;;;;;17.24;57.32;155791.97;5050003;28;20443;-76
2021/04/29 10:59:41;;;;;;;7.27;6.20;;;;;;;17.30;57.27;155806.28;5034388;28;20436;-77
2021/04/29 11:02:26;;;;;;;8.63;7.73;;;;;;;17.40;53.57;155832.31;5051483;28;20906;-76
2021/04/29 11:05:03;;;;;;;10.00;7.87;;;;;;;17.36;57.21;155823.25;5035870;28;20481;-76
2021/04/29 11:07:46;;;;;;;8.37;7.57;;;;;;;17.37;55.08;155825.81;5032791;28;20452;-76
2021/04/29 11:10:26;;;;;;;8.40;7.53;;;;;;;17.35;54.77;155819.31;5052142;28;20487;-76
2021/04/29 11:13:02;;;;;;;8.47;7.50;;;;;;;17.48;55.27;155853.16;5035698;28;20530;-76
2021/04/29 11:15:38;;;;;;;7.97;7.27;;;;;;;17.47;56.04;155850.56;5053365;28;20448;-76
2021/04/29 11:18:14;;;;;;;8.03;7.30;;;;;;;17.46;59.91;155847.94;5030647;28;20448;-76
2021/04/29 11:20:50;;;;;;;8.00;7.20;;;;;;;17.26;57.24;155797.16;5033166;28;20799;-76
2021/04/29 11:23:38;;;;;;;8.27;6.30;;;;;;;17.19;53.93;155778.97;5033906;28;20466;-77
2021/04/29 11:26:16;;;;;;;6.50;5.90;;;;;;;16.80;56.84;155678.78;5028654;28;20443;-76
2021/04/29 11:28:55;;;;;;;6.83;6.17;;;;;;;15.96;60.88;155460.25;5034374;28;20455;-76
2021/04/29 11:31:38;;;;;;;6.83;5.53;;;;;;;15.72;59.55;155399.16;5033826;28;20861;-76
2021/04/29 11:34:13;;;;;;;8.33;6.17;;;;;;;15.49;63.17;155339.38;5030118;28;20486;-76
2021/04/29 11:36:58;;;;;;;6.70;5.63;;;;;;;15.18;61.40;155260.00;5035061;28;20455;-76
2021/04/29 11:39:34;;;;;;;5.70;5.10;;;;;;;15.15;57.46;155252.22;5033128;28;20474;-76
2021/04/29 11:42:24;;;;;;;6.20;5.60;;;;;;;15.16;59.28;155254.81;5052975;28;20442;-76
2021/04/29 11:45:07;;;;;;;7.10;5.37;;;;;;;14.93;61.74;155196.34;5033437;28;20476;-76
2021/04/29 11:47:53;;;;;;;6.00;5.50;;;;;;;14.92;60.68;155192.47;5034177;28;20447;-76
2021/04/29 11:50:30;;;;;;;6.00;5.40;;;;;;;14.74;60.70;155147.00;5032111;28;20456;-76
2021/04/29 11:53:11;;;;;;;5.00;4.50;;;;;;;15.06;61.58;155230.09;5033823;28;20537;-77
2021/04/29 11:55:49;;;;;;;5.23;4.47;;;;;;;15.12;61.82;155244.41;5033019;28;20461;-76
2021/04/29 11:58:24;;;;;;;7.90;4.93;;;;;;;15.03;58.77;155222.34;5033340;28;20461;-76
2021/04/29 12:01:00;;;;;;;6.03;4.50;;;;;;;14.88;62.22;155182.09;5052250;28;20432;-76
2021/04/29 12:03:35;;;;;;;7.97;4.80;;;;;;;14.76;60.12;155150.88;5019333;28;20446;-76